Time;durP1;ratioP1;P1;durP2;ratioP2;P2;SDS_P1;SDS_P2;PMS_P1;PMS_P2;Temp;Humidity;BMP_temperature;BMP_pressure;BME280_temperature;BME280_humidity;BME280_pressure;Samples;Min_cycle;Max_cycle;Signal;HPM_P1;HPM_P2
2023/10/24 00:01:03;;;;;;;115.83;67.10;;;12.80;99.90;;;;;;5060050;28;20685;-70
2023/10/24 00:03:30;;;;;;;117.50;67.87;;;12.80;99.90;;;;;;5068231;28;21214;-70
2023/10/24 00:05:57;;;;;;;119.67;68.80;;;12.80;99.90;;;;;;5065199;28;20753;-69
2023/10/24 00:08:23;;;;;;;118.77;68.23;;;12.90;99.90;;;;;;5053526;28;20654;-70
2023/10/24 00:10:59;;;;;;;120.10;68.37;;;12.90;99.90;;;;;;5069433;28;21125;-70
2023/10/24 00:13:26;;;;;;;118.90;68.47;;;12.90;99.90;;;;;;5067504;28;21215;-70
2023/10/24 00:15:53;;;;;;;123.50;69.63;;;12.80;99.90;;;;;;5059329;28;20665;-70
2023/10/24 00:18:19;;;;;;;117.90;67.43;;;12.90;99.90;;;;;;5057531;28;20641;-70
2023/10/24 00:20:46;;;;;;;121.50;69.27;;;12.90;99.90;;;;;;5054525;28;20689;-70
2023/10/24 00:23:13;;;;;;;122.00;68.67;;;12.90;99.90;;;;;;5063000;28;20657;-69
2023/10/24 00:25:40;;;;;;;119.97;68.90;;;12.90;99.90;;;;;;5067910;28;20681;-69
2023/10/24 00:28:07;;;;;;;117.97;67.57;;;12.90;99.90;;;;;;5072457;28;20704;-69
2023/10/24 00:30:34;;;;;;;118.90;68.40;;;12.90;99.90;;;;;;5064166;28;21041;-68
2023/10/24 00:33:00;;;;;;;122.93;68.10;;;13.00;99.90;;;;;;5060943;28;20696;-69
2023/10/24 00:35:27;;;;;;;123.40;69.30;;;12.90;99.90;;;;;;5060740;28;20645;-68
2023/10/24 00:37:54;;;;;;;125.20;68.77;;;13.00;99.90;;;;;;5068312;28;20756;-70
2023/10/24 00:40:21;;;;;;;122.37;68.07;;;13.00;99.90;;;;;;5061795;28;20705;-70
2023/10/24 00:42:50;;;;;;;119.67;67.43;;;13.00;99.90;;;;;;5062088;28;20685;-70
2023/10/24 00:45:17;;;;;;;120.60;68.33;;;13.00;99.90;;;;;;5071614;28;20656;-70
2023/10/24 00:47:44;;;;;;;125.57;68.70;;;13.10;99.90;;;;;;5063726;28;20662;-69
2023/10/24 00:50:13;;;;;;;125.57;68.17;;;13.10;99.90;;;;;;5063842;28;20669;-69
2023/10/24 00:52:42;;;;;;;126.50;69.90;;;13.10;99.90;;;;;;5060495;28;20694;-70
2023/10/24 00:55:10;;;;;;;123.00;68.90;;;13.10;99.90;;;;;;5070451;28;20643;-69
2023/10/24 00:57:37;;;;;;;126.13;70.37;;;13.10;99.90;;;;;;5071831;28;21370;-69
2023/10/24 01:00:05;;;;;;;122.87;68.00;;;13.20;99.90;;;;;;5069686;28;20780;-69
2023/10/24 01:02:31;;;;;;;131.17;69.30;;;13.10;99.90;;;;;;5053422;28;20677;-69
2023/10/24 01:05:00;;;;;;;127.23;69.10;;;13.20;99.90;;;;;;5057030;28;20649;-68
2023/10/24 01:07:27;;;;;;;126.27;68.40;;;13.20;99.90;;;;;;5064209;28;20788;-69
2023/10/24 01:09:54;;;;;;;127.20;69.33;;;13.10;99.90;;;;;;5068339;28;20756;-69
2023/10/24 01:12:21;;;;;;;128.40;68.07;;;13.20;99.90;;;;;;5064815;28;21012;-69
2023/10/24 01:14:47;;;;;;;132.17;69.50;;;13.20;99.90;;;;;;5051655;28;21160;-69
2023/10/24 01:17:14;;;;;;;131.30;69.00;;;13.20;99.90;;;;;;5059238;28;20753;-70
2023/10/24 01:19:41;;;;;;;135.10;69.87;;;13.20;99.90;;;;;;5066630;28;21546;-71
2023/10/24 01:22:08;;;;;;;138.93;70.37;;;13.20;99.90;;;;;;5071426;28;20680;-68
2023/10/24 01:24:35;;;;;;;133.23;69.60;;;13.20;99.90;;;;;;5063337;28;20676;-70
2023/10/24 01:27:02;;;;;;;128.77;68.40;;;13.10;99.90;;;;;;5057934;28;20753;-71
2023/10/24 01:29:30;;;;;;;134.60;69.67;;;13.20;99.90;;;;;;5048897;28;20744;-71
2023/10/24 01:31:56;;;;;;;144.57;70.97;;;13.10;99.90;;;;;;5060201;28;20673;-69
2023/10/24 01:34:23;;;;;;;159.43;71.63;;;13.10;99.90;;;;;;5057615;28;20658;-68
2023/10/24 01:36:50;;;;;;;158.40;71.33;;;13.10;99.90;;;;;;5068252;28;20657;-69
2023/10/24 01:39:17;;;;;;;159.03;71.30;;;13.10;99.90;;;;;;5035232;28;20758;-69
2023/10/24 01:41:44;;;;;;;162.77;71.43;;;13.10;99.90;;;;;;5059935;28;20991;-69
2023/10/24 01:44:10;;;;;;;161.97;71.43;;;13.10;99.90;;;;;;5063854;28;20714;-69
2023/10/24 01:46:37;;;;;;;164.30;71.90;;;13.10;99.90;;;;;;5065554;28;21077;-69
2023/10/24 01:49:04;;;;;;;167.47;71.37;;;13.10;99.90;;;;;;5061861;28;20685;-69
2023/10/24 01:51:31;;;;;;;175.77;72.30;;;13.10;99.90;;;;;;5059347;28;20749;-68
2023/10/24 01:53:57;;;;;;;264.85;77.90;;;13.10;99.90;;;;;;5065904;28;20680;-69
2023/10/24 01:56:24;;;;;;;205.75;74.80;;;13.10;99.90;;;;;;5063742;28;20306;-70
2023/10/24 01:58:51;;;;;;;172.17;73.43;;;13.10;99.90;;;;;;5066070;28;20246;-69
2023/10/24 02:01:18;;;;;;;149.90;70.70;;;13.10;99.90;;;;;;5059252;28;20670;-69
2023/10/24 02:03:45;;;;;;;134.27;68.90;;;13.10;99.90;;;;;;5064325;28;20654;-69
2023/10/24 02:06:11;;;;;;;127.00;68.80;;;13.20;99.90;;;;;;5039996;28;21330;-69
2023/10/24 02:08:38;;;;;;;126.17;68.80;;;13.20;99.90;;;;;;5060020;28;20667;-69
2023/10/24 02:11:05;;;;;;;127.00;69.50;;;13.20;99.90;;;;;;5063381;28;21321;-69
2023/10/24 02:13:32;;;;;;;125.43;68.60;;;13.10;99.90;;;;;;5074123;28;20645;-70
2023/10/24 02:15:58;;;;;;;122.23;68.37;;;13.10;99.90;;;;;;5062724;28;20661;-69
2023/10/24 02:18:25;;;;;;;125.80;68.87;;;13.10;99.90;;;;;;5068896;28;20657;-69
2023/10/24 02:20:52;;;;;;;127.20;68.50;;;13.10;99.90;;;;;;5068887;28;20748;-70
2023/10/24 02:23:19;;;;;;;124.20;69.10;;;13.10;99.90;;;;;;5050982;28;20682;-70
2023/10/24 02:25:46;;;;;;;125.80;68.50;;;13.10;99.90;;;;;;5063234;28;20693;-69
2023/10/24 02:28:13;;;;;;;128.17;69.10;;;13.20;99.90;;;;;;5070244;28;20647;-69
2023/10/24 02:30:40;;;;;;;129.50;69.20;;;13.20;99.90;;;;;;5056051;28;20674;-69
2023/10/24 02:33:06;;;;;;;130.63;69.30;;;13.20;99.90;;;;;;5064595;28;20669;-68
2023/10/24 02:35:33;;;;;;;123.70;67.80;;;13.20;99.90;;;;;;5057300;28;21192;-70
2023/10/24 02:38:00;;;;;;;124.77;68.20;;;13.20;99.90;;;;;;5062371;28;20675;-69
2023/10/24 02:40:27;;;;;;;124.30;68.27;;;13.10;99.90;;;;;;5058564;28;20665;-69
2023/10/24 02:42:54;;;;;;;126.47;68.70;;;13.10;99.90;;;;;;5049035;28;20761;-70
2023/10/24 02:45:20;;;;;;;132.40;69.30;;;13.10;99.90;;;;;;5041268;28;20685;-69
2023/10/24 02:47:47;;;;;;;135.97;69.40;;;13.10;99.90;;;;;;5049909;28;20703;-69
2023/10/24 02:50:14;;;;;;;134.00;69.67;;;13.10;99.90;;;;;;5050600;28;20669;-69
2023/10/24 02:52:41;;;;;;;134.83;70.13;;;13.10;99.90;;;;;;5067580;28;21214;-69
2023/10/24 02:55:08;;;;;;;133.77;70.03;;;13.10;99.90;;;;;;5064291;28;21214;-70
2023/10/24 02:57:35;;;;;;;135.10;70.50;;;13.10;99.90;;;;;;5062608;28;20653;-69
2023/10/24 03:00:03;;;;;;;132.47;69.50;;;13.10;99.90;;;;;;5058413;28;20820;-69
2023/10/24 03:02:30;;;;;;;131.17;69.03;;;13.10;99.90;;;;;;5069937;28;20763;-69
2023/10/24 03:04:57;;;;;;;130.33;68.70;;;13.10;99.90;;;;;;5064838;28;20733;-69
2023/10/24 03:07:24;;;;;;;132.63;68.63;;;13.00;99.90;;;;;;5066556;28;20698;-69
2023/10/24 03:09:51;;;;;;;131.20;69.00;;;13.10;99.90;;;;;;5067283;28;20753;-70
2023/10/24 03:12:18;;;;;;;131.37;69.17;;;13.10;99.90;;;;;;5066804;28;20650;-69
2023/10/24 03:14:45;;;;;;;135.07;69.70;;;13.10;99.90;;;;;;5056766;28;21169;-70
2023/10/24 03:17:11;;;;;;;127.30;68.07;;;13.00;99.90;;;;;;5058622;28;20696;-69
2023/10/24 03:19:38;;;;;;;133.30;69.63;;;13.00;99.90;;;;;;5065146;28;20693;-70
2023/10/24 03:22:05;;;;;;;133.50;69.73;;;13.00;99.90;;;;;;5052173;28;20685;-69
2023/10/24 03:24:32;;;;;;;128.97;68.30;;;13.00;99.90;;;;;;5067721;28;21246;-69
2023/10/24 03:26:59;;;;;;;133.27;69.70;;;13.00;99.90;;;;;;5063296;28;20653;-70
2023/10/24 03:29:26;;;;;;;133.00;68.90;;;13.00;99.90;;;;;;5066573;28;20738;-69
2023/10/24 03:31:52;;;;;;;134.43;69.07;;;13.00;99.90;;;;;;5059470;28;20665;-70
2023/10/24 03:34:19;;;;;;;129.20;68.07;;;13.00;99.90;;;;;;5067658;28;20652;-70
2023/10/24 03:36:46;;;;;;;141.67;69.60;;;13.00;99.90;;;;;;5066308;28;20661;-70
2023/10/24 03:39:13;;;;;;;129.40;68.73;;;13.00;99.90;;;;;;5043099;28;20709;-71
2023/10/24 03:41:39;;;;;;;132.40;68.90;;;13.00;99.90;;;;;;5067790;28;20661;-70
2023/10/24 03:44:07;;;;;;;132.17;69.30;;;13.00;99.90;;;;;;5061735;28;20657;-70
2023/10/24 03:46:34;;;;;;;130.10;68.77;;;13.00;99.90;;;;;;5064408;28;20658;-69
2023/10/24 03:49:01;;;;;;;130.50;68.77;;;13.00;99.90;;;;;;5057118;28;21281;-70
2023/10/24 03:51:28;;;;;;;127.93;68.90;;;13.00;99.90;;;;;;5063069;28;20685;-70
2023/10/24 03:53:55;;;;;;;130.87;69.40;;;13.00;99.90;;;;;;5065258;28;23063;-69
2023/10/24 03:56:22;;;;;;;131.47;68.50;;;13.00;99.90;;;;;;5055335;28;20658;-69
2023/10/24 03:58:48;;;;;;;135.57;69.87;;;13.00;99.90;;;;;;5061381;28;20749;-67
2023/10/24 04:01:15;;;;;;;132.80;69.67;;;13.10;99.90;;;;;;5066856;28;20665;-70
2023/10/24 04:03:42;;;;;;;132.83;69.90;;;13.00;99.90;;;;;;5062120;28;20689;-69
2023/10/24 04:06:13;;;;;;;131.23;68.87;;;13.00;99.90;;;;;;5056372;28;20661;-68
2023/10/24 04:08:40;;;;;;;128.50;68.37;;;13.00;99.90;;;;;;5067459;28;20685;-70
2023/10/24 04:11:17;;;;;;;126.70;68.10;;;13.00;99.90;;;;;;5057589;28;20677;-68
2023/10/24 04:13:48;;;;;;;127.10;68.70;;;13.00;99.90;;;;;;5069017;28;20650;-70
2023/10/24 04:16:14;;;;;;;128.90;69.00;;;12.90;99.90;;;;;;5051960;28;20653;-71
2023/10/24 04:18:42;;;;;;;127.77;68.23;;;12.90;99.90;;;;;;5067812;28;20727;-70
2023/10/24 04:21:08;;;;;;;130.90;69.40;;;12.90;99.90;;;;;;5059035;28;21492;-70
2023/10/24 04:23:35;;;;;;;127.90;68.60;;;13.00;99.90;;;;;;5045062;28;20686;-70
2023/10/24 04:26:05;;;;;;;132.43;69.33;;;13.00;99.90;;;;;;5064279;28;21281;-70
2023/10/24 04:28:32;;;;;;;133.13;68.97;;;13.00;99.90;;;;;;5058377;28;20752;-69
2023/10/24 04:30:59;;;;;;;131.43;69.10;;;12.90;99.90;;;;;;5059093;28;21168;-69
2023/10/24 04:33:26;;;;;;;130.40;68.50;;;12.90;99.90;;;;;;5068200;28;21404;-70
2023/10/24 04:35:52;;;;;;;128.47;68.60;;;12.90;99.90;;;;;;5063663;28;20665;-69
2023/10/24 04:38:20;;;;;;;131.67;68.83;;;12.80;99.90;;;;;;5062057;28;20664;-69
2023/10/24 04:40:50;;;;;;;138.97;69.30;;;12.80;99.90;;;;;;5056442;28;20674;-70
2023/10/24 04:43:17;;;;;;;127.17;68.17;;;12.80;99.90;;;;;;5062765;28;20694;-69
2023/10/24 04:45:44;;;;;;;175.00;73.10;;;12.80;99.90;;;;;;5058253;28;20684;-70
2023/10/24 04:48:11;;;;;;;134.63;69.37;;;12.80;99.90;;;;;;5058894;28;20653;-70
2023/10/24 04:50:39;;;;;;;208.07;74.22;;;12.90;99.90;;;;;;5066375;28;20728;-70
2023/10/24 04:53:06;;;;;;;153.87;70.53;;;12.90;99.90;;;;;;5060073;28;20222;-69
2023/10/24 04:55:33;;;;;;;148.60;70.47;;;12.90;99.90;;;;;;5053815;28;21287;-70
2023/10/24 04:58:00;;;;;;;146.47;71.37;;;12.90;99.90;;;;;;5060779;28;20749;-70
2023/10/24 05:00:27;;;;;;;142.70;69.83;;;12.80;99.90;;;;;;5061382;28;21338;-70
2023/10/24 05:02:54;;;;;;;139.27;70.40;;;12.80;99.90;;;;;;5060632;28;20747;-69
2023/10/24 05:05:21;;;;;;;141.77;70.30;;;12.90;99.90;;;;;;5055881;28;20699;-70
2023/10/24 05:07:48;;;;;;;139.17;70.10;;;12.90;99.90;;;;;;5067953;28;21165;-70
2023/10/24 05:10:15;;;;;;;140.30;70.73;;;12.90;99.90;;;;;;5065380;28;20742;-69
2023/10/24 05:12:42;;;;;;;144.37;73.40;;;12.90;99.90;;;;;;5066052;28;20661;-70
2023/10/24 05:15:09;;;;;;;144.90;71.60;;;12.90;99.90;;;;;;5059993;28;20738;-69
2023/10/24 05:17:36;;;;;;;139.27;70.90;;;12.90;99.90;;;;;;5055087;28;20667;-70
2023/10/24 05:20:07;;;;;;;128.60;69.23;;;13.00;99.90;;;;;;5053816;28;20685;-69
2023/10/24 05:22:34;;;;;;;125.63;69.17;;;13.00;99.90;;;;;;5066296;28;20688;-69
2023/10/24 05:25:01;;;;;;;124.77;69.00;;;13.00;99.90;;;;;;5070098;28;20651;-70
2023/10/24 05:27:28;;;;;;;120.33;68.63;;;13.10;99.90;;;;;;5057727;28;20676;-70
2023/10/24 05:29:55;;;;;;;120.20;68.10;;;13.10;99.90;;;;;;5066660;28;20728;-70
2023/10/24 05:32:22;;;;;;;122.47;68.23;;;13.10;99.90;;;;;;5061603;28;20677;-70
2023/10/24 05:34:49;;;;;;;122.43;68.17;;;13.10;99.90;;;;;;5062700;28;21213;-69
2023/10/24 05:37:16;;;;;;;118.67;68.30;;;13.10;99.90;;;;;;5070533;28;20748;-70
2023/10/24 05:39:42;;;;;;;121.73;68.87;;;13.00;99.90;;;;;;5069589;28;20737;-69
2023/10/24 05:42:09;;;;;;;118.40;67.50;;;13.00;99.90;;;;;;5062563;28;20663;-70
2023/10/24 05:44:36;;;;;;;125.27;68.70;;;12.90;99.90;;;;;;5061089;28;20653;-70
2023/10/24 05:47:03;;;;;;;121.97;68.00;;;12.90;99.90;;;;;;5067005;28;20656;-69
2023/10/24 05:49:30;;;;;;;124.37;67.83;;;12.90;99.90;;;;;;5061404;28;20712;-69
2023/10/24 05:51:57;;;;;;;135.03;69.33;;;12.90;99.90;;;;;;5065715;28;20638;-69
2023/10/24 05:54:23;;;;;;;143.37;71.03;;;12.90;99.90;;;;;;5065076;28;20790;-70
2023/10/24 05:56:50;;;;;;;151.17;71.40;;;12.90;99.90;;;;;;5067474;28;20715;-69
2023/10/24 05:59:17;;;;;;;160.97;72.23;;;12.90;99.90;;;;;;5062813;28;20680;-69
2023/10/24 06:01:44;;;;;;;166.67;71.80;;;12.90;99.90;;;;;;5048903;28;20706;-69
2023/10/24 06:04:11;;;;;;;184.80;74.93;;;12.80;99.90;;;;;;5064706;28;21368;-69
2023/10/24 06:06:37;;;;;;;162.00;72.00;;;12.80;99.90;;;;;;5063206;28;21033;-70
2023/10/24 06:09:04;;;;;;;156.70;71.70;;;12.90;99.90;;;;;;5071632;28;20660;-70
2023/10/24 06:11:31;;;;;;;151.20;70.93;;;12.90;99.90;;;;;;5071308;28;21206;-70
2023/10/24 06:13:58;;;;;;;138.77;70.53;;;12.90;99.90;;;;;;5058752;28;20771;-69
2023/10/24 06:16:25;;;;;;;133.20;69.83;;;12.90;99.90;;;;;;5071719;28;20703;-70
2023/10/24 06:18:52;;;;;;;131.00;68.93;;;12.90;99.90;;;;;;5061056;28;20673;-69
2023/10/24 06:21:18;;;;;;;132.70;69.47;;;12.90;99.90;;;;;;5057768;28;20819;-70
2023/10/24 06:23:45;;;;;;;136.30;69.80;;;12.90;99.90;;;;;;5061349;28;21450;-70
2023/10/24 06:26:16;;;;;;;134.83;69.67;;;12.90;99.90;;;;;;5063272;28;20755;-69
2023/10/24 06:28:43;;;;;;;133.90;69.40;;;12.90;99.90;;;;;;5062742;28;20649;-70
2023/10/24 06:31:10;;;;;;;134.50;70.23;;;13.00;99.90;;;;;;5068000;28;20688;-69
2023/10/24 06:33:37;;;;;;;131.87;68.60;;;12.90;99.90;;;;;;5068564;28;21135;-70
2023/10/24 06:36:05;;;;;;;135.23;69.43;;;13.00;99.90;;;;;;5064535;28;20659;-70
2023/10/24 06:38:32;;;;;;;126.07;68.50;;;13.00;99.90;;;;;;5058015;28;20674;-70
2023/10/24 06:40:58;;;;;;;128.30;69.63;;;13.00;99.90;;;;;;5064947;28;20684;-70
2023/10/24 06:43:26;;;;;;;142.30;70.53;;;13.00;99.90;;;;;;5041466;28;20793;-70
2023/10/24 06:45:53;;;;;;;138.60;70.97;;;12.90;99.90;;;;;;5054922;28;20668;-70
2023/10/24 06:48:20;;;;;;;139.10;69.77;;;12.90;99.90;;;;;;5060154;28;20687;-70
2023/10/24 06:50:48;;;;;;;145.40;71.17;;;12.90;99.90;;;;;;5060099;28;21329;-70
2023/10/24 06:53:14;;;;;;;137.97;70.17;;;12.90;99.90;;;;;;5066760;28;20644;-70
2023/10/24 06:55:41;;;;;;;138.40;69.67;;;12.90;99.90;;;;;;5060452;28;21507;-70
2023/10/24 06:58:08;;;;;;;139.83;70.17;;;13.00;99.90;;;;;;5060288;28;20679;-70
2023/10/24 07:00:35;;;;;;;152.27;71.37;;;13.00;99.90;;;;;;5051949;28;20685;-69
2023/10/24 07:03:01;;;;;;;145.30;71.40;;;13.10;99.90;;;;;;5067090;28;20723;-70
2023/10/24 07:05:29;;;;;;;146.27;70.17;;;13.00;99.90;;;;;;5050777;28;20661;-71
2023/10/24 07:07:55;;;;;;;145.30;69.77;;;13.00;99.90;;;;;;5067454;28;20657;-71
2023/10/24 07:10:22;;;;;;;146.70;70.70;;;13.00;99.90;;;;;;5060986;28;20679;-70
2023/10/24 07:12:49;;;;;;;143.60;70.07;;;12.90;99.90;;;;;;5053666;28;21022;-70
2023/10/24 07:15:16;;;;;;;140.70;70.17;;;12.90;99.90;;;;;;5048798;28;20764;-70
2023/10/24 07:17:43;;;;;;;132.10;69.03;;;12.90;99.90;;;;;;5060702;28;20669;-70
2023/10/24 07:20:10;;;;;;;127.10;68.20;;;12.90;99.90;;;;;;5057405;28;20677;-69
2023/10/24 07:22:37;;;;;;;133.47;68.77;;;12.90;99.90;;;;;;5049890;28;21126;-70
2023/10/24 07:25:05;;;;;;;130.20;68.40;;;12.80;99.90;;;;;;5059646;28;21241;-70
2023/10/24 07:27:32;;;;;;;130.27;68.63;;;12.90;99.90;;;;;;5063808;28;21032;-70
2023/10/24 07:29:58;;;;;;;131.90;69.73;;;12.90;99.90;;;;;;5050139;28;20761;-71
2023/10/24 07:32:25;;;;;;;131.07;69.10;;;12.90;99.90;;;;;;5056782;28;20658;-70
2023/10/24 07:34:55;;;;;;;131.77;69.27;;;13.00;99.90;;;;;;5060925;28;20661;-70
2023/10/24 07:37:24;;;;;;;134.90;69.67;;;13.00;99.90;;;;;;5061492;28;20662;-70
2023/10/24 07:39:51;;;;;;;136.90;69.50;;;12.90;99.90;;;;;;5059929;28;20684;-70
2023/10/24 07:42:18;;;;;;;137.10;70.47;;;12.90;99.90;;;;;;5052844;28;20723;-70
2023/10/24 07:44:45;;;;;;;135.60;69.10;;;12.90;99.90;;;;;;5055194;28;20710;-70
2023/10/24 07:47:11;;;;;;;133.77;69.10;;;13.00;99.90;;;;;;5063204;28;20691;-70
2023/10/24 07:49:39;;;;;;;136.67;69.57;;;13.00;99.90;;;;;;5052262;28;20677;-71
2023/10/24 07:52:06;;;;;;;138.83;70.30;;;13.10;99.90;;;;;;5059055;28;20649;-70
2023/10/24 07:54:34;;;;;;;135.77;69.40;;;13.10;99.90;;;;;;5052945;28;20654;-71
2023/10/24 07:57:02;;;;;;;133.40;69.57;;;13.10;99.90;;;;;;5060692;28;20668;-70
2023/10/24 07:59:31;;;;;;;132.80;69.27;;;13.10;99.90;;;;;;5058863;28;20707;-70
2023/10/24 08:01:59;;;;;;;133.77;68.90;;;13.10;99.90;;;;;;5065336;28;20672;-70
2023/10/24 08:04:26;;;;;;;132.37;69.93;;;13.00;99.90;;;;;;5056018;28;20681;-70
2023/10/24 08:06:54;;;;;;;131.17;68.50;;;13.00;99.90;;;;;;5054905;28;20665;-70
2023/10/24 08:09:20;;;;;;;131.17;69.00;;;13.00;99.90;;;;;;5063928;28;20662;-71
2023/10/24 08:11:47;;;;;;;131.60;69.20;;;13.00;99.90;;;;;;5068487;28;20662;-71
2023/10/24 08:14:14;;;;;;;127.97;68.50;;;13.00;99.90;;;;;;5059763;28;21244;-71
2023/10/24 08:16:41;;;;;;;131.50;69.13;;;13.00;99.90;;;;;;5062208;28;20668;-70
2023/10/24 08:19:08;;;;;;;130.27;68.73;;;12.90;99.90;;;;;;5068666;28;21471;-71
2023/10/24 08:21:35;;;;;;;138.23;71.83;;;13.00;99.90;;;;;;5057560;28;20744;-70
2023/10/24 08:24:01;;;;;;;140.80;70.83;;;13.00;99.90;;;;;;5058981;28;20770;-70
2023/10/24 08:26:28;;;;;;;132.20;68.93;;;13.00;99.90;;;;;;5056520;28;20690;-70
2023/10/24 08:28:55;;;;;;;132.97;68.93;;;13.00;99.90;;;;;;5054159;28;20763;-70
2023/10/24 08:31:22;;;;;;;138.77;71.23;;;13.00;99.90;;;;;;5060098;28;20644;-71
2023/10/24 08:33:48;;;;;;;141.50;71.60;;;13.10;99.90;;;;;;5065590;28;20661;-71
2023/10/24 08:36:15;;;;;;;140.13;69.83;;;13.10;99.90;;;;;;5061172;28;20752;-70
2023/10/24 08:38:42;;;;;;;134.33;68.80;;;13.10;99.90;;;;;;5062608;28;20787;-71
2023/10/24 08:41:09;;;;;;;143.13;70.43;;;13.10;99.90;;;;;;5060498;28;20673;-70
2023/10/24 08:43:36;;;;;;;136.17;69.17;;;13.10;99.90;;;;;;5063439;28;20758;-71
2023/10/24 08:46:08;;;;;;;142.67;70.73;;;13.10;99.90;;;;;;5055946;28;21066;-71
2023/10/24 08:48:35;;;;;;;142.17;69.83;;;13.10;99.90;;;;;;5070927;28;20648;-71
2023/10/24 08:51:02;;;;;;;140.70;70.40;;;13.10;99.90;;;;;;5069715;28;20668;-65
2023/10/24 08:53:28;;;;;;;143.77;71.17;;;13.20;99.90;;;;;;5071273;28;20992;-68
2023/10/24 08:55:57;;;;;;;144.17;70.50;;;13.20;99.90;;;;;;5064280;28;20757;-70
2023/10/24 08:58:26;;;;;;;139.93;69.60;;;13.20;99.90;;;;;;5060751;28;20702;-70
2023/10/24 09:00:53;;;;;;;130.27;69.00;;;13.20;99.90;;;;;;5066280;28;20677;-71
2023/10/24 09:03:20;;;;;;;126.40;68.23;;;13.30;99.90;;;;;;5061748;28;21072;-70
2023/10/24 09:05:47;;;;;;;128.07;69.60;;;13.30;99.90;;;;;;5042976;28;20656;-70
2023/10/24 09:08:16;;;;;;;126.87;69.67;;;13.30;99.90;;;;;;5064260;28;20739;-71
2023/10/24 09:10:45;;;;;;;125.27;68.40;;;13.30;99.90;;;;;;5063059;28;20697;-71
2023/10/24 09:13:12;;;;;;;121.60;68.40;;;13.30;99.90;;;;;;5063304;28;20658;-72
2023/10/24 09:15:39;;;;;;;122.00;68.77;;;13.30;99.90;;;;;;5071231;28;20676;-70
2023/10/24 09:18:06;;;;;;;126.33;69.17;;;13.40;99.90;;;;;;5068312;28;20648;-71
2023/10/24 09:20:34;;;;;;;121.63;68.73;;;13.40;99.90;;;;;;5072583;28;21313;-70
2023/10/24 09:23:09;;;;;;;150.18;72.65;;;13.30;99.90;;;;;;5037447;28;20520;-60
2023/10/24 09:25:37;;;;;;;98.75;79.22;;;14.20;99.90;;;;;;5048459;28;20797;-65
2023/10/24 09:28:15;;;;;;;89.77;74.93;;;13.40;99.90;;;;;;5064234;28;20227;-63
2023/10/24 09:33:03;;;;;;;;;;;14.50;99.90;;;13.47;100.00;99581.22;5100863;27;19934;-65
2023/10/24 09:35:30;;;;;;;;;;;13.50;99.90;;;13.30;100.00;99576.84;5075396;28;19945;-66
2023/10/24 09:37:56;;;;;;;;;;;13.10;99.90;;;13.17;100.00;99579.03;5079341;28;19938;-67
2023/10/24 09:40:36;;;;;;;;;;;12.90;99.90;;;13.15;100.00;99570.50;5065169;28;19959;-65
2023/10/24 09:43:19;;;;;;;;;;;12.90;99.90;;;13.12;100.00;99573.41;5061842;28;19935;-66
2023/10/24 09:45:46;;;;;;;;;;;12.90;99.90;;;13.20;100.00;99563.03;5073729;28;19939;-64
2023/10/24 09:48:55;;;;;;;;;;;12.80;99.90;;;13.15;100.00;99562.66;5051991;27;19947;-67
2023/10/24 09:51:23;;;;;;;;;;;12.80;99.90;;;13.18;100.00;99554.50;5035729;28;19935;-69
2023/10/24 09:53:50;;;;;;;;;;;12.80;99.90;;;13.23;100.00;99555.66;5037886;28;19959;-64
2023/10/24 09:56:17;;;;;;;;;;;12.90;99.90;;;13.12;100.00;99561.16;5036890;28;20386;-66
2023/10/24 09:58:45;;;;;;;;;;;12.80;99.90;;;13.21;100.00;99556.78;5030423;28;20110;-65
2023/10/24 10:04:00;;;;;;;;;;;12.80;99.90;;;13.23;100.00;99547.81;5101604;27;19939;-66
2023/10/24 10:06:28;;;;;;;;;;;12.90;99.90;;;13.10;100.00;99546.56;5085185;28;20532;-66
2023/10/24 10:09:15;;;;;;;;;;;12.80;99.90;;;13.29;100.00;99546.38;5078383;28;20419;-64
2023/10/24 10:11:42;;;;;;;;;;;12.90;99.90;;;13.28;100.00;99554.38;5072172;28;20393;-66
2023/10/24 10:14:15;;;;;;;;;;;12.90;99.90;;;13.23;100.00;99555.66;5078664;28;20012;-66
2023/10/24 10:16:54;;;;;;;;;;;12.90;99.90;;;13.27;100.00;99552.75;5075959;28;20282;-66
2023/10/24 10:19:51;;;;;;;;;;;12.90;99.90;;;13.24;100.00;99553.88;5082571;28;20523;-65
2023/10/24 10:22:39;;;;;;;;;;;12.90;99.90;;;13.23;100.00;99552.22;5053020;28;19954;-65
2023/10/24 10:25:35;;;;;;;;;;;12.90;99.90;;;13.29;100.00;99540.31;5074725;28;19978;-64
2023/10/24 10:28:34;;;;;;;;;;;12.90;99.90;;;13.23;100.00;99526.84;5081109;28;19942;-66
2023/10/24 10:31:17;;;;;;;;;;;12.90;99.90;;;13.27;100.00;99527.34;5075457;28;19962;-65
2023/10/24 10:34:03;;;;;;;;;;;12.90;99.90;;;13.23;100.00;99526.84;5070862;28;19953;-66
2023/10/24 10:36:30;;;;;;;;;;;12.90;99.90;;;13.29;100.00;99533.25;5072314;28;20034;-66
2023/10/24 10:39:00;;;;;;;;;;;13.00;99.90;;;13.22;100.00;99538.28;5067799;28;19998;-68
2023/10/24 10:41:28;;;;;;;;;;;12.90;99.90;;;13.32;100.00;99540.84;5079894;28;19962;-64
2023/10/24 10:43:55;;;;;;;;;;;12.90;99.90;;;13.34;100.00;99538.88;5079265;28;19924;-66
2023/10/24 10:46:25;;;;;;;;;;;12.90;99.90;;;13.31;100.00;99530.50;5068434;28;19942;-66
2023/10/24 10:48:59;;;;;;;;;;;12.90;99.90;;;13.20;100.00;99536.84;5078545;28;20041;-65
2023/10/24 10:51:29;;;;;;;;;;;12.90;99.90;;;13.34;100.00;99528.41;5069817;28;20459;-66
2023/10/24 10:54:23;;;;;;;;;;;12.90;99.90;;;13.24;100.00;99528.47;5066885;28;19946;-67
2023/10/24 10:56:50;;;;;;;;;;;12.90;99.90;;;13.45;100.00;99522.91;5078177;28;20017;-65
2023/10/24 10:59:31;;;;;;;;;;;13.00;99.90;;;13.24;100.00;99511.97;5071886;28;19951;-65
2023/10/24 11:02:19;;;;;;;;;;;13.00;99.90;;;13.35;100.00;99508.28;5068869;28;19990;-66
2023/10/24 11:04:48;;;;;;;;;;;13.00;99.90;;;13.39;100.00;99510.44;5080520;28;19935;-67
2023/10/24 11:07:15;;;;;;;;;;;13.00;99.90;;;13.39;100.00;99513.06;5078998;28;19935;-66
2023/10/24 11:09:42;;;;;;;;;;;13.00;99.90;;;13.27;100.00;99506.41;5069955;28;20053;-65
2023/10/24 11:12:18;;;;;;;;;;;13.00;99.90;;;13.32;100.00;99501.53;5071369;28;19955;-65
2023/10/24 11:15:07;;;;;;;;;;;12.90;99.90;;;13.26;100.00;99498.72;5060057;28;19989;-66
2023/10/24 11:17:34;;;;;;;;;;;12.90;99.90;;;13.26;100.00;99498.72;5060987;28;19982;-67
2023/10/24 11:20:02;;;;;;;;;;;12.90;99.90;;;13.28;100.00;99496.75;5054255;28;20021;-66
2023/10/24 11:22:47;;;;;;;;;;;12.90;99.90;;;13.16;100.00;99506.69;5051516;28;20019;-67
2023/10/24 11:25:16;;;;;;;;;;;12.90;99.90;;;13.28;100.00;99508.06;5052188;28;19940;-67
2023/10/24 11:27:43;;;;;;;;;;;12.90;99.90;;;13.36;100.00;99495.00;5061628;28;19968;-66
2023/10/24 11:30:12;;;;;;;;;;;12.90;99.90;;;13.36;100.00;99499.41;5059951;28;19962;-67
2023/10/24 11:32:39;;;;;;;;;;;13.00;99.90;;;13.39;100.00;99505.19;5066346;28;19941;-67
2023/10/24 11:35:07;;;;;;;;;;;13.00;99.90;;;13.36;100.00;99494.19;5064399;28;20408;-67
2023/10/24 11:37:34;;;;;;;;;;;12.90;99.90;;;13.29;100.00;99493.97;5066088;28;19939;-67
2023/10/24 11:40:01;;;;;;;;;;;12.90;99.90;;;13.29;100.00;99498.41;5060374;28;20004;-67
2023/10/24 11:42:28;;;;;;;;;;;12.90;99.90;;;13.38;100.00;99500.91;5058756;28;20093;-65
2023/10/24 11:44:54;;;;;;;;;;;12.90;99.90;;;13.31;100.00;99493.84;5060310;28;20085;-66
2023/10/24 11:47:22;;;;;;;;;;;12.90;99.90;;;13.29;100.00;99493.97;5058838;28;19946;-66
2023/10/24 11:49:49;;;;;;;;;;;12.90;99.90;;;13.26;100.00;99501.31;5059535;28;19959;-67
2023/10/24 11:52:16;;;;;;;;;;;12.90;99.90;;;13.38;100.00;99492.22;5057057;28;20358;-65
2023/10/24 11:54:51;;;;;;;;;;;13.00;99.90;;;13.31;100.00;99480.75;5064225;28;20419;-66
2023/10/24 11:57:25;;;;;;;;;;;13.00;99.90;;;13.40;100.00;99475.38;5057030;28;19955;-67
2023/10/24 11:59:53;;;;;;;;;;;13.00;99.90;;;13.38;100.00;99474.72;5058547;28;20001;-67
2023/10/24 12:02:21;;;;;;;;;;;13.00;99.90;;;13.39;100.00;99471.13;5060652;28;20340;-65
2023/10/24 12:04:50;;;;;;;;;;;13.10;99.90;;;13.46;100.00;99480.00;5052867;28;19955;-67
2023/10/24 12:07:17;;;;;;;;;;;13.10;99.90;;;13.46;100.00;99474.75;5063609;28;19943;-67
2023/10/24 12:09:44;;;;;;;;;;;13.10;99.90;;;13.57;100.00;99471.03;5063606;28;19958;-65
2023/10/24 12:12:12;;;;;;;;;;;13.10;99.90;;;13.76;100.00;99455.88;5064894;28;20033;-67